createdAt,value
2022-12-17T00:00:31.179Z,-3.50
2022-12-17T00:05:56.892Z,-3.30
2022-12-17T00:11:20.226Z,-3.30
2022-12-17T00:16:43.754Z,-3.30
2022-12-17T00:22:07.272Z,-3.40
2022-12-17T00:27:30.846Z,-3.30
2022-12-17T00:32:55.175Z,-3.40
2022-12-17T00:38:18.983Z,-3.40
2022-12-17T00:43:42.546Z,-3.70
2022-12-17T00:49:06.657Z,-3.80
2022-12-17T00:54:30.842Z,-3.80
2022-12-17T00:59:56.228Z,-3.70
2022-12-17T01:05:20.158Z,-3.80
2022-12-17T01:10:44.337Z,-3.90
2022-12-17T01:16:08.688Z,-3.70
2022-12-17T01:21:32.540Z,-3.70
2022-12-17T01:26:56.232Z,-3.60
2022-12-17T01:32:20.640Z,-3.60
2022-12-17T01:37:44.322Z,-3.60
2022-12-17T01:43:08.476Z,-3.60
2022-12-17T01:48:35.421Z,-3.80
2022-12-17T01:54:07.088Z,-3.80
2022-12-17T01:59:34.464Z,-3.60
2022-12-17T02:04:59.575Z,-3.60
2022-12-17T02:10:34.466Z,-3.80
2022-12-17T02:16:17.918Z,-3.90
2022-12-17T02:21:44.076Z,-3.60
2022-12-17T02:27:12.310Z,-3.60
2022-12-17T02:32:39.029Z,-3.60
2022-12-17T02:38:09.941Z,-3.60
2022-12-17T02:43:34.911Z,-3.40
2022-12-17T02:48:58.892Z,-3.40
2022-12-17T02:54:23.887Z,-3.40
2022-12-17T02:59:48.207Z,-3.50
2022-12-17T03:05:42.921Z,-3.70
2022-12-17T03:10:37.628Z,-4.00
2022-12-17T03:16:01.128Z,-3.70
2022-12-17T03:21:25.633Z,-3.90
2022-12-17T03:26:50.925Z,-3.70
2022-12-17T03:32:08.436Z,-3.60
2022-12-17T03:37:34.290Z,-3.60
2022-12-17T03:42:58.524Z,-3.60
2022-12-17T03:48:29.746Z,-3.70
2022-12-17T03:53:54.139Z,-3.70
2022-12-17T03:59:17.793Z,-3.90
2022-12-17T04:04:42.083Z,-3.80
2022-12-17T04:10:07.303Z,-3.80
2022-12-17T04:15:31.544Z,-3.90
2022-12-17T04:20:55.574Z,-3.80
2022-12-17T04:26:06.795Z,-3.70
2022-12-17T04:31:31.267Z,-3.60
2022-12-17T04:36:55.212Z,-3.60
2022-12-17T04:42:19.923Z,-3.60
2022-12-17T04:47:44.275Z,-3.70
2022-12-17T04:53:09.335Z,-3.70
2022-12-17T04:58:34.590Z,-3.80
2022-12-17T05:03:59.951Z,-3.90
2022-12-17T05:09:24.116Z,-3.90
2022-12-17T05:14:47.893Z,-3.80
2022-12-17T05:20:11.871Z,-3.70
2022-12-17T05:25:35.829Z,-3.70
2022-12-17T05:31:00.383Z,-3.70
2022-12-17T05:36:25.132Z,-3.70
2022-12-17T05:41:49.465Z,-3.70
2022-12-17T05:47:13.708Z,-3.70
2022-12-17T05:52:38.025Z,-3.80
2022-12-17T05:58:02.210Z,-3.90
2022-12-17T06:03:27.722Z,-3.90
2022-12-17T06:08:51.181Z,-3.80
2022-12-17T06:14:14.933Z,-4.10
2022-12-17T06:19:39.187Z,-4.20
2022-12-17T06:25:03.045Z,-4.10
2022-12-17T06:30:27.355Z,-4.30
2022-12-17T06:35:51.569Z,-4.40
2022-12-17T06:41:17.295Z,-4.40
2022-12-17T06:46:41.836Z,-4.50
2022-12-17T06:52:05.875Z,-4.60
2022-12-17T06:57:30.824Z,-4.70
2022-12-17T07:02:54.765Z,-4.70
2022-12-17T07:08:20.141Z,-4.80
2022-12-17T07:13:44.448Z,-4.80
2022-12-17T07:19:08.104Z,-4.90
2022-12-17T07:24:31.932Z,-4.60
2022-12-17T07:29:56.632Z,-4.70
2022-12-17T07:35:20.545Z,-5.10
2022-12-17T07:40:44.286Z,-5.00
2022-12-17T07:46:08.268Z,-4.70
2022-12-17T07:51:31.984Z,-4.50
2022-12-17T07:56:55.528Z,-4.60
2022-12-17T08:02:20.289Z,-4.20
2022-12-17T08:07:46.257Z,-4.20
2022-12-17T08:13:18.338Z,-4.10
2022-12-17T08:18:42.340Z,-4.00
2022-12-17T08:24:07.091Z,-3.90
2022-12-17T08:29:31.614Z,-3.80
2022-12-17T08:34:55.781Z,-3.60
2022-12-17T08:40:21.396Z,-3.50
2022-12-17T08:45:45.549Z,-3.30
2022-12-17T08:51:09.471Z,-3.30
2022-12-17T08:56:33.234Z,-3.10
2022-12-17T09:01:57.484Z,-2.90
2022-12-17T09:07:21.850Z,-3.30
2022-12-17T09:12:46.104Z,-3.20
2022-12-17T09:18:11.842Z,-2.90
2022-12-17T09:23:37.840Z,-2.80
2022-12-17T09:29:01.946Z,-2.80
2022-12-17T09:34:26.685Z,-2.50
2022-12-17T09:39:51.258Z,-2.40
2022-12-17T09:45:54.388Z,-2.20
2022-12-17T09:51:19.312Z,-2.20
2022-12-17T09:56:47.336Z,-2.20
2022-12-17T10:02:12.221Z,-2.00
2022-12-17T10:07:43.790Z,-1.90
2022-12-17T10:13:08.079Z,-1.70
2022-12-17T10:18:34.068Z,-1.90
2022-12-17T10:23:57.946Z,-1.60
2022-12-17T10:29:40.116Z,-1.40
2022-12-17T10:35:05.942Z,-1.70
2022-12-17T10:40:45.347Z,-1.50
2022-12-17T10:46:17.919Z,-1.60
2022-12-17T10:51:49.047Z,-1.40
2022-12-17T10:57:16.290Z,-1.20
2022-12-17T11:02:47.289Z,-1.10
2022-12-17T11:08:11.967Z,-1.10
2022-12-17T11:13:53.603Z,-1.10
2022-12-17T11:19:31.485Z,-1.00
2022-12-17T11:25:24.799Z,-1.40
2022-12-17T11:30:49.887Z,-1.10
2022-12-17T11:36:38.991Z,-1.00
2022-12-17T11:42:16.157Z,-1.20
2022-12-17T11:47:59.072Z,-0.70
2022-12-17T11:53:43.606Z,-0.70
2022-12-17T11:59:14.780Z,-1.00
2022-12-17T12:04:58.383Z,-0.90
2022-12-17T12:10:27.139Z,-0.70
2022-12-17T12:16:29.466Z,-0.70
2022-12-17T12:22:01.444Z,-0.60
2022-12-17T12:27:51.829Z,-0.50
2022-12-17T12:33:28.731Z,-0.80
2022-12-17T12:38:58.939Z,-1.50
2022-12-17T12:44:27.876Z,-1.80
2022-12-17T12:50:11.099Z,-2.00
2022-12-17T12:55:35.177Z,-2.10
2022-12-17T13:01:12.165Z,-1.60
2022-12-17T13:06:49.349Z,-1.60
2022-12-17T13:12:18.601Z,-1.30
2022-12-17T13:17:36.507Z,-1.60
2022-12-17T13:22:53.174Z,-1.70
2022-12-17T13:27:59.746Z,-1.70
2022-12-17T13:33:41.135Z,-1.80
2022-12-17T13:39:15.910Z,-1.90
2022-12-17T13:44:33.298Z,-1.90
2022-12-17T13:49:39.275Z,-2.10
2022-12-17T13:54:46.050Z,-2.00
2022-12-17T13:59:56.936Z,-1.90
2022-12-17T14:05:08.154Z,-2.20
2022-12-17T14:10:22.209Z,-2.20
2022-12-17T14:15:33.529Z,-2.40
2022-12-17T14:20:41.439Z,-2.80
2022-12-17T14:25:49.187Z,-3.00
2022-12-17T14:36:23.919Z,-3.20
2022-12-17T14:41:52.505Z,-3.10
2022-12-17T14:47:23.612Z,-3.30
2022-12-17T14:52:49.501Z,-3.30
2022-12-17T14:58:14.978Z,-3.40
2022-12-17T15:03:30.681Z,-3.70
2022-12-17T15:08:44.601Z,-3.90
2022-12-17T15:13:56.041Z,-3.80
2022-12-17T15:19:01.435Z,-4.00
2022-12-17T15:24:15.358Z,-4.10
2022-12-17T15:29:22.402Z,-4.10
2022-12-17T15:34:30.290Z,-4.30
2022-12-17T15:39:37.190Z,-4.10
2022-12-17T15:44:45.841Z,-4.20
2022-12-17T15:49:52.280Z,-4.00
2022-12-17T15:54:59.568Z,-4.00
2022-12-17T16:00:07.667Z,-4.00
2022-12-17T16:05:14.386Z,-4.00
2022-12-17T16:10:21.472Z,-4.00
2022-12-17T16:15:28.432Z,-3.80
2022-12-17T16:20:35.361Z,-3.90
2022-12-17T16:25:42.068Z,-3.70
2022-12-17T16:31:05.775Z,-3.40
2022-12-17T16:36:17.107Z,-3.30
2022-12-17T16:41:23.549Z,-3.80
2022-12-17T16:46:36.424Z,-3.70
2022-12-17T16:51:44.614Z,-3.70
2022-12-17T16:56:51.940Z,-3.50
2022-12-17T17:01:58.421Z,-3.50
2022-12-17T17:07:04.903Z,-3.40
2022-12-17T17:12:13.721Z,-3.40
2022-12-17T17:17:53.940Z,-3.50
2022-12-17T17:22:29.483Z,-3.50
2022-12-17T17:27:35.990Z,-3.40
2022-12-17T17:32:42.443Z,-3.40
2022-12-17T17:37:50.046Z,-3.40
2022-12-17T17:42:56.794Z,-3.60
2022-12-17T17:48:02.203Z,-3.40
2022-12-17T17:53:09.234Z,-3.50
2022-12-17T17:58:17.533Z,-3.60
2022-12-17T18:03:24.147Z,-3.50
2022-12-17T18:08:32.739Z,-3.50
2022-12-17T18:13:58.124Z,-3.50
2022-12-17T18:19:08.625Z,-3.50
2022-12-17T18:24:24.385Z,-3.50
2022-12-17T18:29:30.291Z,-3.40
2022-12-17T18:34:39.213Z,-3.60
2022-12-17T18:39:46.143Z,-3.40
2022-12-17T18:44:54.129Z,-3.40
2022-12-17T18:50:01.182Z,-3.40
2022-12-17T18:55:08.809Z,-3.50
2022-12-17T19:00:16.257Z,-3.60
2022-12-17T19:05:22.751Z,-3.60
2022-12-17T19:10:29.466Z,-3.50
2022-12-17T19:15:38.282Z,-3.60
2022-12-17T19:20:45.590Z,-3.40
2022-12-17T19:25:55.179Z,-3.40
2022-12-17T19:31:02.959Z,-3.40
2022-12-17T19:36:25.227Z,-3.30
2022-12-17T19:41:33.960Z,-3.40
2022-12-17T19:46:42.505Z,-3.50
2022-12-17T19:51:50.242Z,-3.60
2022-12-17T19:57:08.484Z,-3.80
2022-12-17T20:02:19.289Z,-3.70
2022-12-17T20:07:26.153Z,-3.90
2022-12-17T20:12:34.031Z,-4.10
2022-12-17T20:17:41.086Z,-3.90
2022-12-17T20:22:47.246Z,-3.70
2022-12-17T20:27:55.278Z,-3.80
2022-12-17T20:33:03.008Z,-4.00
2022-12-17T20:38:10.340Z,-4.30
2022-12-17T20:43:17.537Z,-4.60
2022-12-17T20:48:25.018Z,-4.60
2022-12-17T20:53:32.404Z,-4.90
2022-12-17T20:58:41.306Z,-5.00
2022-12-17T21:03:49.996Z,-4.90
2022-12-17T21:08:58.180Z,-4.80
2022-12-17T21:14:14.509Z,-4.70
2022-12-17T21:19:22.085Z,-4.60
2022-12-17T21:24:29.988Z,-4.70
2022-12-17T21:29:36.310Z,-5.00
2022-12-17T21:34:42.853Z,-4.70
2022-12-17T21:39:52.822Z,-4.70
2022-12-17T21:44:58.226Z,-4.90
2022-12-17T21:50:06.291Z,-5.10
2022-12-17T21:55:12.171Z,-5.10
2022-12-17T22:00:19.094Z,-5.20
2022-12-17T22:05:24.585Z,-5.40
2022-12-17T22:10:38.153Z,-5.60
2022-12-17T22:15:48.303Z,-5.60
2022-12-17T22:21:01.302Z,-5.60
2022-12-17T22:26:12.679Z,-5.70
2022-12-17T22:31:39.060Z,-5.70
2022-12-17T22:39:42.919Z,-5.90
2022-12-17T22:44:46.801Z,-6.00
2022-12-17T22:47:23.331Z,-6.00
2022-12-17T22:52:30.691Z,-5.90
2022-12-17T22:57:38.604Z,-5.70
2022-12-17T23:02:45.154Z,-5.90
2022-12-17T23:07:54.484Z,-5.80
2022-12-17T23:13:01.571Z,-6.20
2022-12-17T23:18:10.026Z,-6.10
2022-12-17T23:23:16.624Z,-6.10
2022-12-17T23:28:23.724Z,-5.90
2022-12-17T23:33:30.440Z,-6.40
2022-12-17T23:38:37.473Z,-6.70
2022-12-17T23:43:44.076Z,-6.60
2022-12-17T23:48:51.878Z,-6.40
2022-12-17T23:54:00.294Z,-6.40
2022-12-17T23:59:06.923Z,-6.60
